createdAt,value
2022-11-16T00:12:19.921Z,11.8
2022-11-16T00:32:20.831Z,11.6
2022-11-16T00:52:22.271Z,11.4
2022-11-16T01:12:23.461Z,11.4
2022-11-16T01:32:24.631Z,11.3
2022-11-16T02:12:27.451Z,11.1
2022-11-16T02:32:28.752Z,11.1
2022-11-16T03:02:29.816Z,11
2022-11-16T04:02:33.085Z,11.1
2022-11-16T04:22:33.739Z,11.1
2022-11-16T04:32:33.863Z,11.1
2022-11-16T04:42:34.021Z,11
2022-11-16T05:12:35.613Z,10.9
2022-11-16T05:22:35.754Z,10.9
2022-11-16T05:32:36.318Z,10.9
2022-11-16T05:42:36.507Z,10.8
2022-11-16T06:52:40.215Z,10.7
2022-11-16T07:32:42.166Z,10.8
2022-11-16T07:52:43.196Z,10.9
2022-11-16T08:02:43.634Z,11.2
2022-11-16T08:12:44.361Z,11
2022-11-16T08:22:45.434Z,10.7
2022-11-16T08:32:46.155Z,10.6
2022-11-16T08:42:47.088Z,10.7
2022-11-16T08:52:47.668Z,10.8
2022-11-16T09:12:48.135Z,11.6
2022-11-16T09:32:49.885Z,11.9
2022-11-16T09:52:50.923Z,12.1
2022-11-16T10:02:51.580Z,12.3
2022-11-16T10:12:52.578Z,12.5
2022-11-16T10:22:53.050Z,12.4
2022-11-16T10:32:53.676Z,11.9
2022-11-16T10:52:55.419Z,12.8
2022-11-16T11:12:56.606Z,12.4
2022-11-16T11:42:59.071Z,12.9
2022-11-16T11:52:59.961Z,13.1
2022-11-16T12:03:00.536Z,13.1
2022-11-16T12:13:01.181Z,12.8
2022-11-16T12:43:02.672Z,13
2022-11-16T12:53:03.347Z,13.4
2022-11-16T13:03:03.589Z,13
2022-11-16T13:13:35.793Z,13.2
2022-11-16T13:23:04.695Z,14
2022-11-16T13:33:05.395Z,13.8
2022-11-16T13:53:51.534Z,13
2022-11-16T14:03:06.745Z,13
2022-11-16T14:13:07.684Z,13
2022-11-16T14:23:08.444Z,13
2022-11-16T14:33:08.751Z,12.9
2022-11-16T14:43:16.250Z,12.7
2022-11-16T14:53:10.056Z,12.5
2022-11-16T15:03:10.223Z,12.4
2022-11-16T15:13:10.725Z,12.4
2022-11-16T15:23:11.695Z,12.4
2022-11-16T15:33:11.768Z,12.1
2022-11-16T15:43:12.394Z,11.9
2022-11-16T15:53:13.119Z,11.5
2022-11-16T16:03:13.567Z,11.3
2022-11-16T16:03:18.826Z,11.3
2022-11-16T16:13:19.290Z,11.4
2022-11-16T16:23:20.059Z,11.3
2022-11-16T16:33:20.796Z,11.4
2022-11-16T16:43:21.058Z,11.4
2022-11-16T16:53:21.337Z,11.4
2022-11-16T17:03:21.774Z,11.4
2022-11-16T17:13:21.881Z,11.4
2022-11-16T17:23:22.364Z,11.3
2022-11-16T17:33:23.221Z,11.3
2022-11-16T17:43:24.049Z,11.1
2022-11-16T17:53:27.211Z,11
2022-11-16T18:03:25.421Z,10.8
2022-11-16T18:13:25.893Z,10.6
2022-11-16T18:23:26.843Z,10.3
2022-11-16T18:33:30.332Z,10
2022-11-16T18:43:28.152Z,10.1
2022-11-16T18:53:29.062Z,10.2
2022-11-16T19:03:29.530Z,10.2
2022-11-16T19:13:30.357Z,10.2
2022-11-16T19:23:31.078Z,10.2
2022-11-16T19:33:31.759Z,10
2022-11-16T19:43:32.951Z,9.9
2022-11-16T19:53:33.501Z,9.8
2022-11-16T20:03:34.509Z,9.7
2022-11-16T20:13:35.259Z,9.7
2022-11-16T20:23:35.743Z,9.7
2022-11-16T20:33:36.042Z,9.6
2022-11-16T20:43:36.568Z,9.6
2022-11-16T20:53:37.113Z,9.6
2022-11-16T21:03:37.627Z,9.8
2022-11-16T21:13:37.833Z,10
2022-11-16T21:23:38.213Z,10
2022-11-16T21:33:38.457Z,9.9
2022-11-16T21:43:39.152Z,9.9
2022-11-16T21:53:39.156Z,10.1
2022-11-16T22:03:39.820Z,10.2
2022-11-16T22:23:41.385Z,10.4
2022-11-16T22:33:41.207Z,10.5
2022-11-16T22:43:41.862Z,10.5
2022-11-16T22:53:42.372Z,10.6
2022-11-16T23:03:42.971Z,10.7
2022-11-16T23:13:43.863Z,10.7
2022-11-16T23:23:44.619Z,10.9
2022-11-16T23:33:45.419Z,10.9
2022-11-16T23:43:46.042Z,11
2022-11-16T23:53:46.355Z,11.1
